Terminal Aerodrome Forecast
Issued by NWS Charleston, WV

Home | Current Version | Previous Version | Text Only | Print | Product List | Glossary On
Versions: 1 2 3 4 5 6 7 8 9 10 11 12 13 14 15 16 17 18 19 20 21 22 23 24 25 26 27
000
FTUS41 KRLX 202300
TAFCRW
TAF
KCRW 202333Z 2100/2124 17004KT P6SM FEW050 SCT250
     FM210500 18004KT 6SM BR FEW050
     FM211000 20005KT 4SM BR BKN025
     FM211400 23009KT 6SM SHRA BR VCTS BKN025CB
     FM212100 24011G17KT 6SM SHRA BR BKN025
     FM212200 25010KT P6SM BKN040=

USA.gov is the U.S. government's official web portal to all federal, state and local government web resources and services.